Time;durP1;ratioP1;P1;durP2;ratioP2;P2;SDS_P1;SDS_P2;PMS_P1;PMS_P2;Temp;Humidity;BMP_temperature;BMP_pressure;BME280_temperature;BME280_humidity;BME280_pressure;Samples;Min_cycle;Max_cycle;Signal;HPM_P1;HPM_P2
2023/05/23 00:00:58;;;;;;;;;19.00;17.50;;;;;-146.67;34.79;74575.78;5082251;27;61979;-84
2023/05/23 00:03:24;;;;;;;;;17.75;16.00;;;;;-146.67;34.77;74571.78;5082744;27;62123;-84
2023/05/23 00:05:50;;;;;;;;;14.25;12.50;;;;;-146.67;34.86;74565.78;5080847;28;61782;-84
2023/05/23 00:08:16;;;;;;;;;15.00;11.75;;;;;-146.67;34.58;74565.78;5082849;28;62218;-84
2023/05/23 00:10:42;;;;;;;;;5.33;5.33;;;;;-146.67;34.98;74575.78;5094749;27;64624;-84
2023/05/23 00:13:08;;;;;;;;;19.25;15.50;;;;;-146.67;34.49;74571.78;5062203;28;61876;-85
2023/05/23 00:15:36;;;;;;;;;17.75;15.75;;;;;-146.67;34.91;74579.78;5062312;28;61876;-84
2023/05/23 00:18:01;;;;;;;;;16.50;14.75;;;;;-146.67;34.54;74565.78;5094700;27;61959;-84
2023/05/23 00:20:27;;;;;;;;;16.50;14.75;;;;;-146.67;34.66;74581.75;5094453;27;63437;-84
2023/05/23 00:22:53;;;;;;;;;18.75;16.25;;;;;-146.67;34.73;74579.78;5060732;28;62043;-84
2023/05/23 00:25:20;;;;;;;;;15.75;15.75;;;;;-146.67;34.72;74585.75;5061033;28;61840;-85
2023/05/23 00:27:46;;;;;;;;;18.00;12.25;;;;;-146.67;34.72;74573.78;5094512;27;61936;-84
2023/05/23 00:30:11;;;;;;;;;17.75;15.00;;;;;-146.67;34.82;74569.78;5094067;27;63628;-84
2023/05/23 00:32:37;;;;;;;;;12.75;11.75;;;;;-146.67;34.67;74575.78;5060766;28;61954;-84
2023/05/23 00:35:02;;;;;;;;;19.50;12.00;;;;;-146.67;34.42;74585.75;5062042;28;61850;-84
2023/05/23 00:37:28;;;;;;;;;19.50;17.00;;;;;-146.67;34.77;74599.72;5062352;28;61826;-85
2023/05/23 00:39:53;;;;;;;;;23.00;15.25;;;;;-146.67;35.02;74619.69;5061489;28;61913;-85
2023/05/23 00:42:19;;;;;;;;;21.75;15.75;;;;;-146.67;35.06;74623.69;5060359;28;61846;-84
2023/05/23 00:44:44;;;;;;;;;15.50;14.75;;;;;-146.67;34.70;74621.69;5062123;28;62020;-85
2023/05/23 00:47:12;;;;;;;;;23.75;17.75;;;;;-146.67;34.82;74615.72;5061679;28;62111;-84
2023/05/23 00:49:38;;;;;;;;;19.25;13.75;;;;;-146.67;34.73;74615.72;5061120;28;61906;-84
2023/05/23 00:52:04;;;;;;;;;20.25;19.25;;;;;-146.67;34.31;74605.72;5060405;28;61948;-85
2023/05/23 00:54:32;;;;;;;;;19.75;17.75;;;;;-146.67;34.84;74629.69;5060414;28;61850;-85
2023/05/23 00:56:58;;;;;;;;;19.25;14.00;;;;;-146.67;34.79;74611.72;5064872;28;62083;-84
2023/05/23 00:59:25;;;;;;;;;21.00;17.00;;;;;-146.67;34.56;74607.72;5065044;28;62002;-85
2023/05/23 01:01:53;;;;;;;;;18.75;15.25;;;;;-146.67;34.49;74595.75;5063815;28;61956;-85
2023/05/23 01:04:19;;;;;;;;;19.75;18.25;;;;;-146.67;34.75;74599.72;5071139;28;61942;-86
2023/05/23 01:06:45;;;;;;;;;18.25;16.00;;;;;-146.67;34.68;74605.72;5085930;27;61888;-85
2023/05/23 01:09:16;;;;;;;;;18.50;15.75;;;;;-146.67;34.59;74601.72;5084956;28;62254;-85
2023/05/23 01:11:49;;;;;;;;;18.25;18.25;;;;;-146.67;34.82;74611.72;5084378;27;61909;-85
2023/05/23 01:14:22;;;;;;;;;25.75;18.25;;;;;-146.67;34.64;74625.69;5085412;27;61884;-85
2023/05/23 01:16:56;;;;;;;;;18.50;16.25;;;;;-146.67;34.66;74639.66;5084573;28;61948;-84
2023/05/23 01:19:43;;;;;;;;;19.00;18.00;;;;;-146.67;34.84;74631.69;5084077;27;62233;-85
2023/05/23 01:22:24;;;;;;;;;24.25;16.50;;;;;-146.67;35.00;74643.66;5083935;28;61791;-85
2023/05/23 01:24:54;;;;;;;;;22.25;18.75;;;;;-146.67;35.01;74647.66;5078807;27;61972;-85
2023/05/23 01:27:29;;;;;;;;;21.25;18.00;;;;;-146.67;34.89;74643.66;5064646;28;61958;-85
2023/05/23 01:30:03;;;;;;;;;28.75;17.75;;;;;-146.67;34.79;74643.66;5062955;28;65147;-85
2023/05/23 01:32:30;;;;;;;;;20.00;18.75;;;;;-146.67;35.06;74637.66;5063209;28;61909;-84
2023/05/23 01:34:56;;;;;;;;;18.25;16.75;;;;;-146.67;35.23;74657.63;5064808;28;61959;-85
2023/05/23 01:37:22;;;;;;;;;17.50;14.75;;;;;-146.67;35.05;74657.63;5065185;28;62187;-85
2023/05/23 01:39:47;;;;;;;;;21.50;15.75;;;;;-146.67;35.05;74663.63;5062639;28;63789;-85
2023/05/23 01:42:13;;;;;;;;;34.00;27.25;;;;;-146.67;35.09;74671.59;5063157;28;61854;-86
2023/05/23 01:44:39;;;;;;;;;24.50;17.50;;;;;-146.67;35.17;74683.59;5068196;28;61804;-85
2023/05/23 01:47:07;;;;;;;;;0.00;0.00;;;;;-146.67;35.47;74703.56;5100460;27;61926;-85
2023/05/23 01:49:35;;;;;;;;;20.50;17.25;;;;;-146.67;35.36;74681.59;5072661;28;62215;-85
2023/05/23 01:52:01;;;;;;;;;18.75;17.00;;;;;-146.67;35.13;74669.63;5081247;28;61989;-85
2023/05/23 01:54:28;;;;;;;;;25.00;20.75;;;;;-146.67;35.28;74675.59;5084249;28;61955;-85
2023/05/23 01:56:56;;;;;;;;;25.00;17.50;;;;;-146.67;35.00;74631.69;5085085;28;62193;-85
2023/05/23 01:59:22;;;;;;;;;20.00;17.25;;;;;-146.67;35.10;74643.66;5084028;28;63359;-85
2023/05/23 02:01:48;;;;;;;;;20.50;17.50;;;;;-146.67;35.22;74645.66;5084664;28;61989;-85
2023/05/23 02:04:14;;;;;;;;;24.25;19.75;;;;;-146.67;34.92;74631.69;5082864;28;62871;-85
2023/05/23 02:06:40;;;;;;;;;22.25;19.25;;;;;-146.67;34.87;74629.69;5100106;27;62022;-85
2023/05/23 02:09:07;;;;;;;;;19.50;15.00;;;;;-146.67;34.65;74621.69;5083236;28;63276;-85
2023/05/23 02:11:32;;;;;;;;;26.50;22.25;;;;;-146.67;34.71;74637.66;5084548;28;61782;-85
2023/05/23 02:13:58;;;;;;;;;19.25;17.25;;;;;-146.67;34.76;74631.69;5084600;28;62335;-85
2023/05/23 02:16:25;;;;;;;;;20.50;18.25;;;;;-146.67;34.62;74615.72;5084605;28;61865;-85
2023/05/23 02:18:51;;;;;;;;;17.00;14.00;;;;;-146.67;34.76;74617.69;5081713;28;63814;-85
2023/05/23 02:21:17;;;;;;;;;23.50;20.00;;;;;-146.67;34.67;74627.69;5084827;27;62127;-86
2023/05/23 02:23:43;;;;;;;;;31.00;22.50;;;;;-146.67;35.29;74671.59;5082414;28;62150;-85
2023/05/23 02:26:08;;;;;;;;;24.50;20.00;;;;;-146.67;35.37;74687.56;5100328;27;61887;-85
2023/05/23 02:28:33;;;;;;;;;22.00;19.75;;;;;-146.67;35.41;74699.56;5099311;27;63844;-85
2023/05/23 02:30:59;;;;;;;;;21.75;19.50;;;;;-146.67;35.21;74691.56;5083985;28;62094;-85
2023/05/23 02:33:24;;;;;;;;;17.75;17.25;;;;;-146.67;35.25;74689.56;5083970;28;62441;-84
2023/05/23 02:35:50;;;;;;;;;16.75;15.75;;;;;-146.67;35.03;74689.56;5084535;27;61935;-84
2023/05/23 02:38:16;;;;;;;;;16.25;12.00;;;;;-146.67;35.07;74691.56;5081591;28;63991;-84
2023/05/23 02:40:41;;;;;;;;;19.50;19.00;;;;;-146.67;35.13;74689.56;5079858;27;62490;-84
2023/05/23 02:43:07;;;;;;;;;23.00;17.25;;;;;-146.67;34.96;74685.59;5063845;28;61887;-84
2023/05/23 02:45:32;;;;;;;;;15.75;14.25;;;;;-146.67;35.21;74685.59;5063554;28;61754;-85
2023/05/23 02:47:57;;;;;;;;;21.75;17.25;;;;;-146.67;35.07;74679.59;5062622;28;63020;-85
2023/05/23 02:50:23;;;;;;;;;18.50;17.75;;;;;-146.67;34.99;74679.59;5078857;28;61834;-85
2023/05/23 02:52:48;;;;;;;;;21.50;18.25;;;;;-146.67;34.93;74671.59;5061775;28;62167;-85
2023/05/23 02:55:13;;;;;;;;;20.50;17.25;;;;;-146.67;34.77;74665.63;5062538;28;62065;-85
2023/05/23 02:57:39;;;;;;;;;23.00;17.00;;;;;-146.67;34.98;74685.59;5078351;28;64329;-85
2023/05/23 03:00:05;;;;;;;;;25.25;18.50;;;;;-146.67;34.97;74693.56;5063431;28;61780;-85
2023/05/23 03:02:30;;;;;;;;;24.25;18.50;;;;;-146.67;35.06;74701.56;5063482;27;61956;-85
2023/05/23 03:04:56;;;;;;;;;20.50;16.75;;;;;-146.67;34.81;74711.53;5073463;28;61678;-85
2023/05/23 03:07:22;;;;;;;;;21.25;17.00;;;;;-146.67;34.90;74729.50;5082657;28;61926;-84
2023/05/23 03:09:47;;;;;;;;;28.50;17.50;;;;;-146.67;34.82;74747.47;5078873;28;62120;-85
2023/05/23 03:12:13;;;;;;;;;28.00;21.00;;;;;-146.67;35.43;74759.47;5063255;28;62029;-85
2023/05/23 03:14:38;;;;;;;;;20.00;17.00;;;;;-146.67;35.35;74773.44;5063293;28;62094;-84
2023/05/23 03:17:03;;;;;;;;;31.25;21.50;;;;;-146.67;35.35;74779.41;5069455;28;62043;-85
2023/05/23 03:19:29;;;;;;;;;27.75;20.75;;;;;-146.67;35.18;74771.44;5083005;28;61968;-85
2023/05/23 03:21:54;;;;;;;;;23.50;19.50;;;;;-146.67;35.59;74779.41;5083233;28;61973;-85
2023/05/23 03:24:20;;;;;;;;;20.50;19.00;;;;;-146.67;35.45;74775.44;5082242;28;61781;-85
2023/05/23 03:26:45;;;;;;;;;25.25;21.75;;;;;-146.67;35.29;74783.41;5062333;28;62003;-84
2023/05/23 03:29:11;;;;;;;;;27.00;22.00;;;;;-146.67;35.40;74789.41;5078713;28;61785;-85
2023/05/23 03:31:36;;;;;;;;;20.00;17.75;;;;;-146.67;35.18;74785.41;5073235;28;61785;-85
2023/05/23 03:34:04;;;;;;;;;21.50;17.75;;;;;-146.67;35.30;74785.41;5083376;28;61911;-85
2023/05/23 03:36:32;;;;;;;;;22.50;18.25;;;;;-146.67;35.07;74773.44;5095580;27;63923;-84
2023/05/23 03:38:57;;;;;;;;;22.25;17.50;;;;;-146.67;35.31;74773.44;5062909;28;62024;-85
2023/05/23 03:41:23;;;;;;;;;23.25;15.25;;;;;-146.67;35.23;74755.47;5078581;28;62083;-85
2023/05/23 03:43:48;;;;;;;;;28.25;19.25;;;;;-146.67;35.11;74759.47;5076134;28;61870;-85
2023/05/23 03:46:14;;;;;;;;;21.00;18.25;;;;;-146.67;35.14;74765.44;5082218;28;62785;-85
2023/05/23 03:48:39;;;;;;;;;19.25;18.50;;;;;-146.67;35.25;74761.44;5082397;27;61940;-85
2023/05/23 03:51:05;;;;;;;;;29.00;21.00;;;;;-146.67;35.14;74767.44;5082557;28;62197;-85
2023/05/23 03:53:30;;;;;;;;;22.00;20.75;;;;;-146.67;35.35;74799.38;5082895;28;61860;-85
2023/05/23 03:55:56;;;;;;;;;24.00;19.50;;;;;-146.67;35.54;74797.38;5082303;28;61784;-83
2023/05/23 03:58:21;;;;;;;;;27.50;21.75;;;;;-146.67;35.16;74795.41;5083049;27;61959;-84
2023/05/23 04:00:46;;;;;;;;;20.25;18.50;;;;;-146.67;35.43;74783.41;5082927;28;61860;-84
2023/05/23 04:03:16;;;;;;;;;24.00;19.75;;;;;-146.67;35.50;74799.38;5081587;28;62161;-84
2023/05/23 04:05:41;;;;;;;;;19.75;18.50;;;;;-146.67;35.16;74785.41;5081484;27;62941;-84
2023/05/23 04:08:07;;;;;;;;;21.00;16.50;;;;;-146.67;35.09;74781.41;5098221;27;61749;-83
2023/05/23 04:10:32;;;;;;;;;19.00;18.00;;;;;-146.67;35.20;74811.38;5082877;28;62423;-84
2023/05/23 04:12:58;;;;;;;;;22.75;15.50;;;;;-146.67;35.38;74815.38;5082869;28;61909;-84
2023/05/23 04:15:23;;;;;;;;;18.00;15.75;;;;;-146.67;35.24;74823.34;5082350;27;61895;-85
2023/05/23 04:17:50;;;;;;;;;20.00;16.25;;;;;-146.67;35.50;74823.34;5081782;27;61801;-84
2023/05/23 04:20:15;;;;;;;;;19.00;15.25;;;;;-146.67;35.52;74823.34;5098098;27;62031;-85
2023/05/23 04:22:41;;;;;;;;;23.25;18.25;;;;;-146.67;35.36;74815.38;5082984;28;62150;-84
2023/05/23 04:25:08;;;;;;;;;15.50;14.75;;;;;-146.67;35.33;74819.34;5082005;27;61972;-85
2023/05/23 04:27:33;;;;;;;;;18.25;15.75;;;;;-146.67;35.21;74827.34;5082673;27;62075;-85
2023/05/23 04:29:59;;;;;;;;;16.25;11.75;;;;;-146.67;35.55;74819.34;5082799;28;61704;-85
2023/05/23 04:32:25;;;;;;;;;15.25;12.75;;;;;-146.67;35.47;74833.31;5086091;27;62168;-85
2023/05/23 04:34:50;;;;;;;;;15.25;13.25;;;;;-146.67;35.51;74841.31;5084895;27;62018;-85
2023/05/23 04:37:20;;;;;;;;;17.50;13.00;;;;;-146.67;35.76;74843.31;5086194;27;61860;-85
2023/05/23 04:39:46;;;;;;;;;21.00;15.00;;;;;-146.67;35.38;74839.31;5085799;28;62007;-85
2023/05/23 04:42:12;;;;;;;;;20.75;15.75;;;;;-146.67;35.46;74849.31;5085355;27;61821;-85
2023/05/23 04:44:37;;;;;;;;;15.50;12.50;;;;;-146.67;35.54;74857.28;5065021;28;62995;-85
2023/05/23 04:47:03;;;;;;;;;16.00;13.00;;;;;-146.67;35.72;74855.28;5064804;28;61880;-85
2023/05/23 04:49:28;;;;;;;;;20.00;15.00;;;;;-146.67;35.75;74849.31;5081416;27;62357;-85
2023/05/23 04:51:54;;;;;;;;;18.75;15.50;;;;;-146.67;35.69;74831.34;5085970;28;62223;-85
2023/05/23 04:54:19;;;;;;;;;14.75;9.75;;;;;-146.67;35.42;74823.34;5083862;28;63650;-84
2023/05/23 04:56:45;;;;;;;;;14.25;13.75;;;;;-146.67;35.47;74825.34;5085801;28;61752;-84
2023/05/23 04:59:12;;;;;;;;;14.50;12.50;;;;;-146.67;35.29;74825.34;5082860;28;61991;-84
2023/05/23 05:01:40;;;;;;;;;15.25;11.75;;;;;-146.67;35.44;74827.34;5086070;27;61730;-88
2023/05/23 05:04:05;;;;;;;;;14.50;11.75;;;;;-146.67;35.55;74821.34;5084468;27;62915;-85
2023/05/23 05:06:31;;;;;;;;;14.00;13.00;;;;;-146.67;35.16;74815.38;5085703;28;61664;-84
2023/05/23 05:08:57;;;;;;;;;13.75;12.75;;;;;-146.67;35.41;74823.34;5084234;28;62295;-85
2023/05/23 05:11:22;;;;;;;;;18.25;16.75;;;;;-146.67;35.57;74815.38;5100977;27;62401;-85
2023/05/23 05:13:47;;;;;;;;;13.50;13.50;;;;;-146.67;35.21;74815.38;5084516;28;61761;-85
2023/05/23 05:16:13;;;;;;;;;16.50;12.75;;;;;-146.67;35.37;74817.34;5084584;27;61779;-84
2023/05/23 05:18:39;;;;;;;;;8.25;8.25;;;;;-146.67;35.67;74817.34;5081774;28;62003;-84
2023/05/23 05:21:05;;;;;;;;;12.25;11.75;;;;;-146.67;35.42;74807.38;5084939;27;61922;-84
2023/05/23 05:23:32;;;;;;;;;18.75;12.25;;;;;-146.67;35.33;74815.38;5085506;27;61943;-84
2023/05/23 05:25:59;;;;;;;;;18.00;13.25;;;;;-146.67;35.28;74801.38;5086111;28;61891;-84
2023/05/23 05:28:24;;;;;;;;;12.50;11.00;;;;;-146.67;35.52;74807.38;5097739;27;61811;-84
2023/05/23 05:30:52;;;;;;;;;9.00;8.50;;;;;-146.67;35.44;74799.38;5066884;28;61855;-83
2023/05/23 05:33:19;;;;;;;;;16.25;14.50;;;;;-146.67;35.49;74795.41;5082541;28;64621;-86
2023/05/23 05:35:45;;;;;;;;;13.00;11.75;;;;;-146.67;35.55;74799.38;5085175;27;61843;-86
2023/05/23 05:38:10;;;;;;;;;16.25;12.25;;;;;-146.67;35.35;74799.38;5117104;27;62105;-84
2023/05/23 05:40:36;;;;;;;;;13.25;9.50;;;;;-146.67;35.50;74803.38;5084055;28;62090;-88
2023/05/23 05:43:01;;;;;;;;;16.75;10.50;;;;;-146.67;35.65;74789.41;5079372;27;63531;-82
2023/05/23 05:45:26;;;;;;;;;10.75;9.75;;;;;-146.67;35.52;74783.41;5081606;27;61852;-86
2023/05/23 05:47:52;;;;;;;;;12.75;9.50;;;;;-146.67;35.45;74779.41;5083483;27;61908;-85
2023/05/23 05:50:19;;;;;;;;;12.50;10.75;;;;;-146.67;35.32;74751.47;5083704;27;62049;-83
2023/05/23 05:52:44;;;;;;;;;11.00;11.00;;;;;-146.67;35.29;74779.41;5082123;27;64985;-86
2023/05/23 05:55:10;;;;;;;;;14.00;12.50;;;;;-146.67;35.43;74793.41;5083541;27;62855;-86
2023/05/23 05:57:39;;;;;;;;;11.50;10.75;;;;;-146.67;35.30;74803.38;5083878;28;61969;-86
2023/05/23 06:00:17;;;;;;;;;10.75;10.75;;;;;-146.67;35.44;74809.38;5083944;28;61912;-86
2023/05/23 06:02:47;;;;;;;;;10.25;8.25;;;;;-146.67;35.38;74803.38;5083007;28;62070;-84
2023/05/23 06:05:15;;;;;;;;;12.25;8.50;;;;;-146.67;35.83;74813.38;5077905;27;61990;-85
2023/05/23 06:07:41;;;;;;;;;13.75;10.75;;;;;-146.67;36.01;74819.34;5108643;27;62215;-85
2023/05/23 06:10:07;;;;;;;;;12.50;10.75;;;;;-146.67;35.96;74811.38;5083001;27;61950;-85
2023/05/23 06:12:34;;;;;;;;;11.25;10.00;;;;;-146.67;35.81;74809.38;5081865;28;63638;-84
2023/05/23 06:14:59;;;;;;;;;12.25;8.00;;;;;-146.67;35.61;74807.38;5069450;28;62255;-85
2023/05/23 06:17:25;;;;;;;;;9.25;8.50;;;;;-146.67;35.33;74809.38;5081837;28;62085;-86
2023/05/23 06:19:50;;;;;;;;;12.25;10.75;;;;;-146.67;35.59;74815.38;5084095;27;61863;-85
2023/05/23 06:22:15;;;;;;;;;10.00;9.75;;;;;-146.67;35.66;74819.34;5091079;27;64004;-86
2023/05/23 06:24:42;;;;;;;;;12.75;11.50;;;;;-146.67;35.67;74815.38;5083417;28;61888;-86
2023/05/23 06:27:07;;;;;;;;;12.75;11.75;;;;;-146.67;35.55;74811.38;5080191;28;61831;-86
2023/05/23 06:29:34;;;;;;;;;15.75;11.75;;;;;-146.67;35.61;74829.34;5074803;27;62516;-86
2023/05/23 06:32:00;;;;;;;;;11.75;11.00;;;;;-146.67;35.80;74821.34;5071039;27;62929;-81
2023/05/23 06:34:27;;;;;;;;;14.00;11.25;;;;;-146.67;35.60;74823.34;5062376;28;61926;-86
2023/05/23 06:36:53;;;;;;;;;15.50;12.00;;;;;-146.67;35.63;74815.38;5081304;27;62052;-84
2023/05/23 06:39:19;;;;;;;;;14.00;12.75;;;;;-146.67;35.62;74815.38;5083901;28;61889;-85
2023/05/23 06:41:44;;;;;;;;;12.00;12.00;;;;;-146.67;35.48;74809.38;5082628;27;62114;-85
2023/05/23 06:44:09;;;;;;;;;14.25;11.50;;;;;-146.67;35.26;74825.34;5083193;27;61809;-86
2023/05/23 06:46:35;;;;;;;;;15.75;12.00;;;;;-146.67;35.55;74829.34;5081268;28;62427;-85
2023/05/23 06:49:00;;;;;;;;;14.50;14.25;;;;;-146.67;35.40;74829.34;5081550;27;61820;-85
2023/05/23 06:51:25;;;;;;;;;14.25;11.25;;;;;-146.67;35.34;74819.34;5081461;28;63464;-85
2023/05/23 06:53:51;;;;;;;;;17.75;14.50;;;;;-146.67;35.29;74807.38;5092247;27;61816;-86
2023/05/23 06:56:16;;;;;;;;;16.25;12.00;;;;;-146.67;35.13;74793.41;5103573;27;61911;-85
2023/05/23 06:58:41;;;;;;;;;11.75;10.25;;;;;-146.67;35.25;74799.38;5101556;27;62180;-86
2023/05/23 07:01:09;;;;;;;;;13.75;12.50;;;;;-146.67;35.07;74809.38;5082010;28;61759;-86
2023/05/23 07:03:37;;;;;;;;;18.25;13.25;;;;;-146.67;35.28;74819.34;5081268;28;61954;-85
2023/05/23 07:06:02;;;;;;;;;17.25;14.25;;;;;-146.67;35.18;74823.34;5103606;27;61762;-86
2023/05/23 07:08:28;;;;;;;;;14.25;13.00;;;;;-146.67;35.34;74817.34;5065483;28;61892;-86
2023/05/23 07:10:53;;;;;;;;;18.00;13.00;;;;;-146.67;35.38;74815.38;5062267;28;61848;-86
2023/05/23 07:13:19;;;;;;;;;14.50;13.00;;;;;-146.67;35.16;74801.38;5068150;28;62297;-86
2023/05/23 07:15:44;;;;;;;;;15.00;13.50;;;;;-146.67;35.28;74803.38;5082683;28;62050;-86
2023/05/23 07:18:10;;;;;;;;;18.50;14.50;;;;;-146.67;34.90;74795.41;5080993;28;62072;-86
2023/05/23 07:20:35;;;;;;;;;16.25;13.50;;;;;-146.67;35.18;74793.41;5082792;27;61867;-86
2023/05/23 07:23:01;;;;;;;;;13.00;12.25;;;;;-146.67;34.76;74783.41;5077306;28;61761;-84
2023/05/23 07:25:43;;;;;;;;;12.25;10.00;;;;;-146.67;34.74;74777.44;5074054;27;62849;-84
2023/05/23 07:28:41;;;;;;;;;;;;;;;;;;;;;
2023/05/23 07:35:05;;;;;;;;;14.00;11.25;;;;;-146.67;34.62;74775.44;4986066;28;62026;-84
2023/05/23 07:37:35;;;;;;;;;15.75;9.00;;;;;-146.67;34.73;74787.41;5040112;28;62019;-81
2023/05/23 07:40:00;;;;;;;;;10.50;9.50;;;;;-146.67;34.64;74791.41;5039845;28;62150;-82
2023/05/23 07:42:25;;;;;;;;;0.00;0.00;;;;;-146.67;34.82;74785.41;5038906;28;62210;-81
2023/05/23 07:44:51;;;;;;;;;22.25;14.25;;;;;-146.67;34.94;74785.41;5056248;28;62431;-82
2023/05/23 07:47:16;;;;;;;;;13.75;11.75;;;;;-146.67;34.75;74785.41;5039094;28;62165;-81
2023/05/23 07:50:05;;;;;;;;;;;;;;;;;;;;;
2023/05/23 07:52:34;;;;;;;;;14.25;11.50;;;;;-146.67;34.82;74779.41;5036886;28;91871;-85
2023/05/23 07:54:59;;;;;;;;;12.00;11.00;;;;;-146.67;34.92;74785.41;5019275;28;61883;-83
2023/05/23 07:57:46;;;;;;;;;;;;;;;;;;;;;
2023/05/23 08:00:22;;;;;;;;;5.33;5.33;;;;;-146.67;35.01;74783.41;5018376;28;68099;-80
2023/05/23 08:03:09;;;;;;;;;;;;;;;;;;;;;
2023/05/23 08:06:49;;;;;;;;;0.00;0.00;;;;;-146.67;34.86;74783.41;5040792;28;74338;-84
2023/05/23 08:09:15;;;;;;;;;6.33;4.00;;;;;-146.67;35.13;74787.41;4967001;28;62101;-81
2023/05/23 08:15:01;;;;;;;;;13.00;11.00;;;;;-146.67;35.23;74791.41;4958515;28;62315;-84
2023/05/23 08:17:36;;;;;;;;;6.67;6.67;;;;;-146.67;35.21;74775.44;4943676;28;61870;-83
2023/05/23 08:20:05;;;;;;;;;14.25;11.75;;;;;-146.67;35.18;74779.41;4944143;28;62086;-82
2023/05/23 08:22:33;;;;;;;;;0.00;0.00;;;;;-146.67;35.27;74765.44;4961260;28;62147;-85
2023/05/23 08:25:39;;;;;;;;;0.00;0.00;;;;;-146.67;34.93;74763.44;4944093;28;63654;-91
2023/05/23 08:28:14;;;;;;;;;;;;;;;;;;;;;
2023/05/23 08:34:26;;;;;;;;;12.50;12.50;;;;;-146.67;35.18;74745.47;4882947;29;62158;-86
2023/05/23 08:36:56;;;;;;;;;0.00;0.00;;;;;-146.67;35.37;74739.50;4867875;29;63406;-85
2023/05/23 08:39:24;;;;;;;;;15.00;13.25;;;;;-146.67;35.05;74735.50;4883393;29;61927;-85
2023/05/23 08:41:50;;;;;;;;;9.67;8.00;;;;;-146.67;34.85;74725.50;4898046;29;61911;-82
2023/05/23 08:44:17;;;;;;;;;14.67;12.00;;;;;-146.67;34.79;74727.50;4886875;29;61937;-81
2023/05/23 08:46:48;;;;;;;;;0.00;0.00;;;;;-146.67;34.92;74745.47;4902335;29;63889;-82
2023/05/23 08:52:36;;;;;;;;;;;;;;;;;;;;;
2023/05/23 08:55:55;;;;;;;;;11.00;9.67;;;;;-146.67;34.48;74707.53;4963760;28;68880;-82
2023/05/23 08:58:21;;;;;;;;;0.00;0.00;;;;;-146.67;34.65;74693.56;4995526;28;64386;-81
2023/05/23 09:01:14;;;;;;;;;;;;;;;;;;;;;
2023/05/23 09:03:44;;;;;;;;;0.00;0.00;;;;;-146.67;34.10;74675.59;4962295;28;71695;-80
2023/05/23 09:06:22;;;;;;;;;0.00;0.00;;;;;-146.67;34.22;74689.56;4941469;28;61949;-83
2023/05/23 09:08:48;;;;;;;;;0.00;0.00;;;;;-146.67;34.27;74695.56;4959311;28;62217;-81
2023/05/23 09:11:13;;;;;;;;;9.33;9.33;;;;;-146.67;34.22;74707.53;5054664;28;61953;-83
2023/05/23 09:13:40;;;;;;;;;0.00;0.00;;;;;-146.67;34.37;74717.53;5080544;28;62016;-81
2023/05/23 09:16:10;;;;;;;;;0.00;0.00;;;;;-146.67;34.48;74717.53;5082546;27;61896;-83
2023/05/23 09:18:43;;;;;;;;;0.00;0.00;;;;;-146.67;34.53;74723.50;5091769;27;63084;-82
2023/05/23 09:21:17;;;;;;;;;18.25;13.00;;;;;-146.67;34.90;74727.50;5094254;27;61914;-82
2023/05/23 09:24:02;;;;;;;;;16.25;13.25;;;;;-146.67;34.93;74725.50;5064317;27;61843;-82
2023/05/23 09:26:40;;;;;;;;;8.00;6.67;;;;;-146.67;34.54;74719.53;5064808;28;61697;-82
2023/05/23 09:29:09;;;;;;;;;0.00;0.00;;;;;-146.67;34.68;74719.53;5064140;28;61944;-82
2023/05/23 09:31:35;;;;;;;;;0.00;0.00;;;;;-146.67;34.62;74731.50;5062711;28;62178;-81
2023/05/23 09:34:09;;;;;;;;;0.00;0.00;;;;;-146.67;34.62;74745.47;5063152;28;61821;-82
2023/05/23 09:36:35;;;;;;;;;0.00;0.00;;;;;-146.67;34.56;74733.50;5064614;28;61741;-80
2023/05/23 09:39:04;;;;;;;;;0.00;0.00;;;;;-146.67;34.72;74717.53;5063596;28;62047;-79
2023/05/23 09:41:32;;;;;;;;;15.00;14.00;;;;;-146.67;34.79;74707.53;5097224;27;62212;-82
2023/05/23 09:43:58;;;;;;;;;0.00;0.00;;;;;-146.67;34.39;74701.56;5091896;27;61719;-81
2023/05/23 09:46:27;;;;;;;;;19.50;14.50;;;;;-146.67;34.19;74669.63;5083219;28;62428;-82
2023/05/23 09:48:54;;;;;;;;;20.25;14.00;;;;;-146.67;33.67;74665.63;5095076;27;64686;-81
2023/05/23 09:51:22;;;;;;;;;0.00;0.00;;;;;-146.67;33.93;74637.66;5076345;28;62015;-82
2023/05/23 09:53:51;;;;;;;;;0.00;0.00;;;;;-146.67;33.45;74601.72;5084498;27;61998;-82
2023/05/23 09:56:18;;;;;;;;;0.00;0.00;;;;;-146.67;32.89;74575.78;5084670;27;61927;-80
2023/05/23 09:59:06;;;;;;;;;0.00;0.00;;;;;-146.67;33.34;74557.81;5084382;27;62301;-80
2023/05/23 10:01:32;;;;;;;;;0.00;0.00;;;;;-146.67;33.27;74555.81;5084722;27;61885;-79
2023/05/23 10:04:08;;;;;;;;;0.00;0.00;;;;;-146.67;33.13;74561.81;5098292;27;62122;-79
2023/05/23 10:06:43;;;;;;;;;0.00;0.00;;;;;-146.67;33.37;74577.78;5084736;28;61864;-79
2023/05/23 10:09:18;;;;;;;;;0.00;0.00;;;;;-146.67;33.76;74619.69;5084911;27;64435;-81
2023/05/23 10:12:20;;;;;;;;;17.50;15.75;;;;;-146.67;33.93;74679.59;5084348;28;61990;-82
2023/05/23 10:14:56;;;;;;;;;0.00;0.00;;;;;-146.67;34.22;74707.53;5064143;28;61963;-82
2023/05/23 10:17:46;;;;;;;;;0.00;0.00;;;;;-146.67;34.02;74715.53;5069542;28;61845;-82
2023/05/23 10:20:15;;;;;;;;;0.00;0.00;;;;;-146.67;34.11;74743.47;5088654;27;62373;-79
2023/05/23 10:22:41;;;;;;;;;0.00;0.00;;;;;-146.67;34.36;74747.47;5084324;27;61849;-80
2023/05/23 10:25:09;;;;;;;;;0.00;0.00;;;;;-146.67;34.50;74781.41;5080350;28;62017;-79
2023/05/23 10:27:38;;;;;;;;;0.00;0.00;;;;;-146.67;34.54;74745.47;5084210;27;61775;-80
2023/05/23 10:30:05;;;;;;;;;0.00;0.00;;;;;-146.67;33.96;74717.53;5082095;27;63755;-81
2023/05/23 10:32:32;;;;;;;;;0.00;0.00;;;;;-146.67;33.89;74703.56;5084152;27;61964;-82
2023/05/23 10:35:10;;;;;;;;;0.00;0.00;;;;;-146.67;33.66;74675.59;5117244;27;61875;-78
2023/05/23 10:37:45;;;;;;;;;0.00;0.00;;;;;-146.67;33.42;74639.66;5084000;27;61969;-81
2023/05/23 10:40:17;;;;;;;;;0.00;0.00;;;;;-146.67;33.06;74613.72;5088302;27;63864;-80
2023/05/23 10:43:00;;;;;;;;;0.00;0.00;;;;;-146.67;33.05;74585.75;5084128;28;61736;-79
2023/05/23 10:45:26;;;;;;;;;0.00;0.00;;;;;-146.67;32.54;74563.78;5086532;27;62081;-81
2023/05/23 10:47:52;;;;;;;;;0.00;0.00;;;;;-146.67;32.84;74579.78;5084024;28;61915;-82
2023/05/23 10:50:35;;;;;;;;;0.00;0.00;;;;;-146.67;32.78;74595.75;5083018;27;61854;-84
2023/05/23 10:53:03;;;;;;;;;0.00;0.00;;;;;-146.67;32.50;74567.78;5080157;27;61676;-84
2023/05/23 10:55:33;;;;;;;;;0.00;0.00;;;;;-146.67;32.56;74561.81;5063210;28;61777;-84
2023/05/23 10:58:20;;;;;;;;;0.00;0.00;;;;;-146.67;32.11;74557.81;5068712;28;61738;-84
2023/05/23 11:00:53;;;;;;;;;0.00;0.00;;;;;-146.67;32.59;74543.84;5061112;28;64227;-84
2023/05/23 11:03:30;;;;;;;;;0.00;0.00;;;;;-146.67;32.50;74549.81;5061428;28;62036;-84
2023/05/23 11:05:55;;;;;;;;;0.00;0.00;;;;;-146.67;32.30;74535.84;5083616;28;61880;-83
2023/05/23 11:08:23;;;;;;;;;0.00;0.00;;;;;-146.67;31.99;74529.84;5083260;28;61983;-86
2023/05/23 11:11:00;;;;;;;;;0.00;0.00;;;;;-146.67;31.99;74523.88;5079592;27;64198;-84
2023/05/23 11:13:54;;;;;;;;;0.00;0.00;;;;;-146.67;31.65;74525.88;5117886;27;61777;-86
2023/05/23 11:16:52;;;;;;;;;0.00;0.00;;;;;-146.67;32.04;74515.88;5102379;27;62058;-85
2023/05/23 11:19:17;;;;;;;;;0.00;0.00;;;;;-146.67;31.55;74489.94;5040409;28;62226;-85
2023/05/23 11:21:44;;;;;;;;;15.00;12.25;;;;;-146.67;31.47;74446.00;5039381;28;63537;-86
2023/05/23 11:24:10;;;;;;;;;0.00;0.00;;;;;-146.67;31.44;74388.09;5040553;28;62146;-87
2023/05/23 11:26:35;;;;;;;;;0.00;0.00;;;;;-146.67;30.88;74318.25;5050911;28;61779;-86
2023/05/23 11:29:03;;;;;;;;;0.00;0.00;;;;;-146.67;30.00;74256.34;5059984;28;61871;-87
2023/05/23 11:31:29;;;;;;;;;0.00;0.00;;;;;-146.67;29.47;74196.47;5058629;28;62154;-87
2023/05/23 11:33:54;;;;;;;;;0.00;0.00;;;;;-146.67;29.28;74128.59;5045430;28;61821;-87
2023/05/23 11:36:21;;;;;;;;;0.00;0.00;;;;;-146.67;28.78;74028.78;5041879;28;62026;-88